Mitra — PBZW — position and weather

sailwx.info

Track history (hours):
 
Tides and Currents Weather Stations Pressure Air Temp Water Temp Dewpoint Dewpoint Depression Visibility Wind Speed Wind Dir Waves Ship Positions

Oceanographic research ship Mitra (Netherlands)

Detailed information on ship capabilities available from University of Delaware's Ocean Information Center.

Last reported at 2019-Apr-24 20:34 UTC. Time now 2019-Aug-24 22:21 UTC.
Position S 22°49' W 043°09'.
Warning: this ship's position is months out of date.

Length 223 m; draft 8 m.

Type: Ship (hazmat cat A). MMSI: 244670078.

Date/timePositionNaut miles runAvg speedWind from/ knotsBaromVisibWave heightAir tempDewpointWater temp
2019-Apr-24 20:34S 22°49' W 043°09'0 0.1
2019-Apr-24 20:28S 22°49' W 043°09'0 0.1
2019-Apr-24 19:58S 22°49' W 043°09'0 0.5
2019-Apr-24 19:30S 22°49' W 043°09'3 5.4
2019-Apr-24 19:00S 22°52' W 043°09'3 5.5
2019-Apr-24 18:30S 22°53' W 043°12'0 0.3
2019-Apr-24 18:00S 22°53' W 043°12'0 0.0
2019-Apr-24 17:28S 22°53' W 043°12'0 0.0
2019-Apr-24 16:58S 22°53' W 043°12'0 0.0
2019-Apr-24 16:29S 22°53' W 043°12'0 0.0
2019-Apr-24 15:59S 22°53' W 043°12'0 0.0
2019-Apr-24 15:29S 22°53' W 043°12'0 0.0
2019-Apr-24 14:59S 22°53' W 043°12'0 0.0
2019-Apr-24 14:29S 22°53' W 043°12'0 0.0
2019-Apr-24 13:59S 22°53' W 043°12'0 0.0
2019-Apr-24 13:29S 22°53' W 043°12'0 0.0
2019-Apr-24 12:59S 22°53' W 043°12'0 0.0
2019-Apr-24 12:29S 22°53' W 043°12'0 0.0
2019-Apr-24 11:59S 22°53' W 043°12'0 0.0
2019-Apr-24 11:29S 22°53' W 043°12'0 0.0
2019-Apr-24 10:59S 22°53' W 043°12'0 0.0
2019-Apr-24 10:29S 22°53' W 043°12'0 0.0
2019-Apr-24 09:59S 22°53' W 043°12'0 0.0
2019-Apr-24 09:29S 22°53' W 043°12'0 0.0
2019-Apr-24 08:59S 22°53' W 043°12'0 0.0
2019-Apr-24 08:29S 22°53' W 043°12'0 0.0
2019-Apr-24 07:59S 22°53' W 043°12'0 0.0
2019-Apr-24 07:29S 22°53' W 043°12'0 0.0
2019-Apr-24 06:59S 22°53' W 043°12'0 0.0
2019-Apr-24 06:29S 22°53' W 043°12'0 0.0
2019-Apr-24 05:59S 22°53' W 043°12'0 0.0
2019-Apr-24 05:29S 22°53' W 043°12'0 0.0
2019-Apr-24 04:59S 22°53' W 043°12'0 0.0
2019-Apr-24 04:29S 22°53' W 043°12'0 0.0
2019-Apr-24 03:59S 22°53' W 043°12'0 0.0
2019-Apr-24 03:29S 22°53' W 043°12'0 0.0
2019-Apr-24 02:59S 22°53' W 043°12'0 0.0
2019-Apr-24 02:29S 22°53' W 043°12'0 0.0
2019-Apr-24 02:00S 22°53' W 043°12'1 1.9
2019-Apr-24 01:30S 22°53' W 043°11'3 6.5
2019-Apr-24 01:00S 22°55' W 043°09'4 8.0
2019-Apr-24 00:30S 22°59' W 043°08'815.7
2019-Apr-24 00:00S 23°06' W 043°05'1 1.6
2019-Apr-23 23:30S 23°07' W 043°05'0 0.6
2019-Apr-23 23:00S 23°07' W 043°05'0 0.8
2019-Apr-23 22:26S 23°08' W 043°05'1 1.6
2019-Apr-23 22:00S 23°08' W 043°06'712.4
2019-Apr-23 21:29S 23°10' W 043°13'715.0
2019-Apr-23 21:00S 23°13' W 043°20'714.8
2019-Apr-23 20:30S 23°15' W 043°27'1114.3
2019-Apr-23 19:44S 23°20' W 043°39'14115.7
2019-Apr-23 10:44S 24°13' W 046°01'417.2
2019-Apr-23 10:30S 24°12' W 046°06'816.5
2019-Apr-23 10:00S 24°10' W 046°14'815.8
2019-Apr-23 09:30S 24°07' W 046°23'712.9
2019-Apr-23 09:00S 24°00' W 046°20'3 6.2
2019-Apr-23 08:28S 23°58' W 046°17'1 1.2
2019-Apr-23 07:54S 23°58' W 046°18'0 0.0
2019-Apr-23 07:30S 23°58' W 046°18'0 0.0
2019-Apr-23 06:57S 23°58' W 046°18'0 0.0
2019-Apr-23 06:27S 23°58' W 046°18'0 0.0
2019-Apr-23 05:27S 23°58' W 046°18'0 0.0
2019-Apr-23 04:30S 23°58' W 046°18'0 0.0
2019-Apr-23 04:00S 23°58' W 046°18'0 0.0
2019-Apr-23 03:30S 23°58' W 046°18'0 0.0
2019-Apr-23 03:00S 23°58' W 046°18'0 0.0
2019-Apr-23 02:27S 23°58' W 046°18'0 0.0
2019-Apr-23 01:48S 23°58' W 046°18'0 0.0
2019-Apr-23 01:30S 23°58' W 046°18'0 0.0
2019-Apr-23 00:57S 23°58' W 046°18'0 0.0
2019-Apr-23 00:27S 23°58' W 046°18'0 0.0
2019-Apr-23 00:00S 23°58' W 046°18'0 0.0
2019-Apr-22 23:27S 23°58' W 046°18'0 0.0
2019-Apr-22 23:00S 23°58' W 046°18'0 0.0
2019-Apr-22 22:27S 23°58' W 046°18'0 0.0
2019-Apr-22 21:57S 23°58' W 046°18'0 0.0
2019-Apr-22 21:09S 23°58' W 046°18'0 0.0
2019-Apr-22 20:57S 23°58' W 046°18'0 0.0
2019-Apr-22 20:18S 23°58' W 046°18'0 0.0
2019-Apr-22 19:54S 23°58' W 046°18'0 0.0
2019-Apr-22 19:18S 23°58' W 046°18'0 0.0
2019-Apr-22 19:00S 23°58' W 046°18'0 0.0
2019-Apr-22 18:24S 23°58' W 046°18'0 0.0
2019-Apr-22 17:51S 23°58' W 046°18'0 0.0
2019-Apr-22 17:27S 23°58' W 046°18'0 0.0
2019-Apr-22 16:33S 23°58' W 046°18'0 0.0
2019-Apr-22 16:21S 23°58' W 046°18'0 0.0
2019-Apr-22 15:45S 23°58' W 046°18'0 0.0
2019-Apr-22 15:15S 23°58' W 046°18'0 0.0
2019-Apr-22 14:51S 23°58' W 046°18'0 0.0
2019-Apr-22 14:15S 23°58' W 046°18'0 0.0
2019-Apr-22 13:48S 23°58' W 046°18'0 0.0
2019-Apr-22 13:21S 23°58' W 046°18'0 0.0
2019-Apr-22 12:51S 23°58' W 046°18'0 0.0
2019-Apr-22 12:21S 23°58' W 046°18'2 3.0
2019-Apr-22 11:49S 23°59' W 046°17'3 8.4
2019-Apr-22 11:30S 24°00' W 046°20'4 7.1
2019-Apr-22 11:00S 24°04' W 046°22'4 7.9
2019-Apr-22 10:30S 24°08' W 046°21'2 3.1
2019-Apr-22 09:58S 24°09' W 046°20'0 0.0
2019-Apr-22 09:28S 24°09' W 046°20'0 0.1
2019-Apr-22 08:58S 24°09' W 046°20'0 0.0
2019-Apr-22 08:28S 24°09' W 046°20'0 0.0
2019-Apr-22 07:55S 24°09' W 046°20'0 0.0
2019-Apr-22 07:25S 24°09' W 046°20'0 0.0
2019-Apr-22 06:58S 24°09' W 046°20'0 0.0
2019-Apr-22 06:28S 24°09' W 046°20'0 0.0
2019-Apr-22 05:58S 24°09' W 046°20'0 0.0
2019-Apr-22 05:28S 24°09' W 046°20'0 0.0
2019-Apr-22 04:58S 24°09' W 046°20'0 0.0
2019-Apr-22 04:28S 24°09' W 046°20'0 0.0
2019-Apr-22 03:58S 24°09' W 046°20'0 0.0
2019-Apr-22 03:28S 24°09' W 046°20'0 0.0
2019-Apr-22 02:58S 24°09' W 046°20'0 0.0
2019-Apr-22 02:28S 24°09' W 046°20'0 0.0
2019-Apr-22 01:58S 24°09' W 046°20'0 0.0
2019-Apr-22 01:22S 24°09' W 046°20'0 0.0
2019-Apr-22 00:58S 24°09' W 046°20'0 0.0
2019-Apr-22 00:25S 24°09' W 046°20'0 0.0
2019-Apr-21 23:52S 24°09' W 046°20'0 0.0
2019-Apr-21 23:28S 24°09' W 046°20'0 0.0
2019-Apr-21 22:58S 24°09' W 046°20'0 0.0
2019-Apr-21 22:16S 24°09' W 046°20'0 0.0
2019-Apr-21 21:58S 24°09' W 046°20'0 0.0
2019-Apr-21 21:28S 24°09' W 046°20'0 0.0
2019-Apr-21 20:58S 24°09' W 046°20'0 0.0
2019-Apr-21 20:28S 24°09' W 046°20'0 0.0
2019-Apr-21 19:52S 24°09' W 046°20'0 0.0
2019-Apr-21 19:28S 24°09' W 046°20'0 0.0
2019-Apr-21 18:52S 24°09' W 046°20'0 0.0
2019-Apr-21 18:28S 24°09' W 046°20'0 0.0
2019-Apr-21 17:55S 24°09' W 046°20'0 0.0
2019-Apr-21 17:28S 24°09' W 046°20'0 0.0
2019-Apr-21 16:55S 24°09' W 046°20'0 0.0
2019-Apr-21 16:25S 24°09' W 046°20'0 0.0
2019-Apr-21 15:58S 24°09' W 046°20'0 0.0
2019-Apr-21 15:28S 24°09' W 046°20'0 0.0
2019-Apr-21 14:58S 24°09' W 046°20'0 0.0
2019-Apr-21 14:25S 24°09' W 046°20'0 0.0
2019-Apr-21 13:58S 24°09' W 046°20'0 0.0
2019-Apr-21 13:28S 24°09' W 046°20'0 0.0
2019-Apr-21 12:55S 24°09' W 046°20'0 0.0
2019-Apr-21 12:28S 24°09' W 046°20'0 0.0
2019-Apr-21 11:58S 24°09' W 046°20'0 0.0
2019-Apr-21 11:28S 24°09' W 046°20'0 0.0
2019-Apr-21 10:58S 24°09' W 046°20'0 0.0
2019-Apr-21 10:25S 24°09' W 046°20'0 0.0
2019-Apr-21 09:58S 24°09' W 046°20'0 0.0
2019-Apr-21 09:28S 24°09' W 046°20'0 0.1
2019-Apr-21 08:58S 24°09' W 046°20'0 0.0
2019-Apr-21 08:28S 24°09' W 046°20'0 0.0
2019-Apr-21 07:52S 24°09' W 046°20'0 0.1
2019-Apr-21 07:16S 24°09' W 046°20'0 0.2
2019-Apr-21 06:49S 24°09' W 046°20'0 0.2
2019-Apr-21 06:25S 24°09' W 046°20'0 0.0
2019-Apr-21 05:58S 24°09' W 046°20'0 0.1
2019-Apr-21 05:28S 24°09' W 046°20'0 0.3
2019-Apr-21 04:58S 24°09' W 046°20'0 0.2
2019-Apr-21 04:25S 24°09' W 046°20'0 0.0
2019-Apr-21 03:58S 24°09' W 046°20'0 0.0
2019-Apr-21 03:19S 24°09' W 046°20'0 0.0
2019-Apr-21 02:58S 24°09' W 046°20'0 0.0
2019-Apr-21 02:28S 24°09' W 046°20'0 0.0
2019-Apr-21 01:52S 24°09' W 046°20'0 0.1
2019-Apr-21 01:25S 24°09' W 046°20'0 0.1
2019-Apr-21 00:58S 24°09' W 046°20'0 0.0
2019-Apr-21 00:28S 24°09' W 046°20'0 0.0
2019-Apr-20 23:58S 24°09' W 046°20'0 0.0
2019-Apr-20 23:28S 24°09' W 046°20'0 0.0
2019-Apr-20 22:58S 24°09' W 046°20'0 0.0
2019-Apr-20 22:28S 24°09' W 046°20'0 0.1
2019-Apr-20 21:58S 24°09' W 046°20'0 0.1
2019-Apr-20 21:28S 24°09' W 046°20'0 0.1
2019-Apr-20 20:55S 24°09' W 046°20'0 0.0
2019-Apr-20 20:16S 24°09' W 046°20'0 0.0
2019-Apr-20 19:58S 24°09' W 046°20'0 0.1
2019-Apr-20 19:16S 24°09' W 046°20'0 0.1
2019-Apr-20 18:58S 24°09' W 046°20'0 0.0
2019-Apr-20 18:28S 24°09' W 046°20'0 0.0
2019-Apr-20 17:58S 24°09' W 046°20'0 0.0
2019-Apr-20 17:28S 24°09' W 046°20'0 0.0
2019-Apr-20 16:58S 24°09' W 046°20'0 0.1
2019-Apr-20 16:28S 24°09' W 046°20'0 0.1
2019-Apr-20 15:58S 24°09' W 046°20'0 0.1
2019-Apr-20 15:28S 24°09' W 046°20'0 0.1
2019-Apr-20 14:49S 24°09' W 046°20'0 0.0
2019-Apr-20 14:28S 24°09' W 046°20'0 0.1
2019-Apr-20 13:55S 24°09' W 046°20'0 0.1
2019-Apr-20 13:28S 24°09' W 046°20'0 0.0
2019-Apr-20 12:58S 24°09' W 046°20'0 0.1
2019-Apr-20 12:28S 24°09' W 046°20'0 0.0
2019-Apr-20 11:58S 24°09' W 046°20'0 0.1
2019-Apr-20 11:28S 24°09' W 046°20'0 0.1
2019-Apr-20 10:58S 24°09' W 046°20'0 0.0
2019-Apr-20 10:13S 24°09' W 046°20'0 0.0
2019-Apr-20 09:58S 24°09' W 046°20'0 0.0
2019-Apr-20 09:28S 24°09' W 046°20'0 0.0
2019-Apr-20 08:58S 24°09' W 046°20'0 0.0
2019-Apr-20 08:19S 24°09' W 046°20'0 0.1
2019-Apr-20 07:55S 24°09' W 046°20'0 0.0
2019-Apr-20 07:25S 24°09' W 046°20'0 0.2
2019-Apr-20 06:55S 24°09' W 046°20'0 0.2
2019-Apr-20 06:28S 24°09' W 046°20'0 0.0
2019-Apr-20 05:52S 24°09' W 046°20'0 0.0
2019-Apr-20 05:28S 24°09' W 046°20'0 0.0
2019-Apr-20 04:58S 24°09' W 046°20'0 0.1
2019-Apr-20 04:25S 24°09' W 046°20'0 0.0
2019-Apr-20 03:55S 24°09' W 046°20'0 0.0
2019-Apr-20 03:25S 24°09' W 046°20'0 0.0
2019-Apr-20 02:58S 24°09' W 046°20'0 0.1
2019-Apr-20 02:28S 24°09' W 046°20'0 0.0
2019-Apr-20 01:58S 24°09' W 046°20'0 0.0
2019-Apr-20 01:28S 24°09' W 046°20'0 0.0
2019-Apr-20 00:58S 24°09' W 046°20'0 0.0
2019-Apr-20 00:28S 24°09' W 046°20'0 0.0
2019-Apr-19 23:58S 24°09' W 046°20'0 0.0
2019-Apr-19 23:25S 24°09' W 046°20'0 0.0
2019-Apr-19 22:58S 24°09' W 046°20'0 0.0
2019-Apr-19 22:28S 24°09' W 046°20'0 0.1
2019-Apr-19 21:55S 24°09' W 046°20'0 0.0
2019-Apr-19 21:25S 24°09' W 046°20'0 0.1
2019-Apr-19 20:55S 24°09' W 046°20'0 0.1
2019-Apr-19 20:25S 24°09' W 046°20'0 0.1
2019-Apr-19 19:55S 24°09' W 046°20'0 0.0
2019-Apr-19 19:16S 24°09' W 046°20'0 0.0
2019-Apr-19 18:46S 24°09' W 046°20'0 0.0
2019-Apr-19 18:25S 24°09' W 046°20'0 0.0
2019-Apr-19 17:52S 24°09' W 046°20'0 0.0
2019-Apr-19 17:16S 24°09' W 046°20'0 0.0
2019-Apr-19 16:52S 24°09' W 046°20'0 0.0
2019-Apr-19 16:01S 24°09' W 046°20'0 0.1
2019-Apr-19 15:55S 24°09' W 046°20'0 0.0
2019-Apr-19 15:04S 24°09' W 046°20'0 0.0
2019-Apr-19 14:52S 24°09' W 046°20'0 0.0
2019-Apr-19 14:28S 24°09' W 046°20'0 0.0
2019-Apr-19 13:58S 24°09' W 046°20'0 0.0
2019-Apr-19 13:25S 24°09' W 046°20'0 0.0
2019-Apr-19 12:52S 24°09' W 046°20'0 0.0
2019-Apr-19 12:25S 24°09' W 046°20'0 0.1
2019-Apr-19 11:55S 24°09' W 046°20'0 0.0
2019-Apr-19 11:25S 24°09' W 046°20'0 0.0
2019-Apr-19 10:55S 24°09' W 046°20'0 0.1
2019-Apr-19 10:28S 24°09' W 046°20'0 0.0
2019-Apr-19 09:55S 24°09' W 046°20'0 0.1
2019-Apr-19 09:28S 24°09' W 046°20'0 0.0
2019-Apr-19 08:58S 24°09' W 046°20'0 0.0
2019-Apr-19 08:28S 24°09' W 046°20'0 0.0
2019-Apr-19 07:55S 24°09' W 046°20'0 0.2
2019-Apr-19 07:28S 24°09' W 046°20'0 0.0
2019-Apr-19 06:58S 24°09' W 046°20'0 0.1
2019-Apr-19 06:28S 24°09' W 046°20'0 0.0
2019-Apr-19 05:58S 24°09' W 046°20'0 0.1
2019-Apr-19 05:25S 24°09' W 046°20'0 0.0
2019-Apr-19 04:52S 24°09' W 046°20'0 0.1
2019-Apr-19 04:28S 24°09' W 046°20'0 0.0
2019-Apr-19 03:55S 24°09' W 046°20'0 0.0
2019-Apr-19 03:22S 24°09' W 046°20'0 0.0
2019-Apr-19 02:43S 24°09' W 046°20'0 0.0
2019-Apr-19 02:07S 24°09' W 046°20'0 0.1
2019-Apr-19 01:49S 24°09' W 046°20'0 0.5
2019-Apr-19 01:28S 24°09' W 046°20'1 2.2
2019-Apr-19 01:00S 24°10' W 046°20'611.9
2019-Apr-19 00:30S 24°15' W 046°23'815.8
2019-Apr-19 00:00S 24°22' W 046°28'815.8
2019-Apr-18 23:30S 24°29' W 046°31'815.5
2019-Apr-18 23:00S 24°35' W 046°37'2615.7
2019-Apr-18 21:21S 24°55' W 046°56'  
Track history (hours):
 
Tides and Currents Weather Stations Pressure Air Temp Water Temp Dewpoint Dewpoint Depression Visibility Wind Speed Wind Dir Waves Ship Positions

Oceanographic research ship Mitra (Netherlands)

Detailed information on ship capabilities available from University of Delaware's Ocean Information Center.

Last reported at 2019-Apr-24 20:34 UTC. Time now 2019-Aug-24 22:21 UTC.
Position S 22°49' W 043°09'.
Warning: this ship's position is months out of date.

Length 223 m; draft 8 m.

Type: Ship (hazmat cat A). MMSI: 244670078.

Date/timePositionNaut miles runAvg speedWind from/ knotsBaromVisibWave heightAir tempDewpointWater temp
2019-Apr-24 20:34S 22°49' W 043°09'0 0.1
2019-Apr-24 20:28S 22°49' W 043°09'0 0.1
2019-Apr-24 19:58S 22°49' W 043°09'0 0.5
2019-Apr-24 19:30S 22°49' W 043°09'3 5.4
2019-Apr-24 19:00S 22°52' W 043°09'3 5.5
2019-Apr-24 18:30S 22°53' W 043°12'0 0.3
2019-Apr-24 18:00S 22°53' W 043°12'0 0.0
2019-Apr-24 17:28S 22°53' W 043°12'0 0.0
2019-Apr-24 16:58S 22°53' W 043°12'0 0.0
2019-Apr-24 16:29S 22°53' W 043°12'0 0.0
2019-Apr-24 15:59S 22°53' W 043°12'0 0.0
2019-Apr-24 15:29S 22°53' W 043°12'0 0.0
2019-Apr-24 14:59S 22°53' W 043°12'0 0.0
2019-Apr-24 14:29S 22°53' W 043°12'0 0.0
2019-Apr-24 13:59S 22°53' W 043°12'0 0.0
2019-Apr-24 13:29S 22°53' W 043°12'0 0.0
2019-Apr-24 12:59S 22°53' W 043°12'0 0.0
2019-Apr-24 12:29S 22°53' W 043°12'0 0.0
2019-Apr-24 11:59S 22°53' W 043°12'0 0.0
2019-Apr-24 11:29S 22°53' W 043°12'0 0.0
2019-Apr-24 10:59S 22°53' W 043°12'0 0.0
2019-Apr-24 10:29S 22°53' W 043°12'0 0.0
2019-Apr-24 09:59S 22°53' W 043°12'0 0.0
2019-Apr-24 09:29S 22°53' W 043°12'0 0.0
2019-Apr-24 08:59S 22°53' W 043°12'0 0.0
2019-Apr-24 08:29S 22°53' W 043°12'0 0.0
2019-Apr-24 07:59S 22°53' W 043°12'0 0.0
2019-Apr-24 07:29S 22°53' W 043°12'0 0.0
2019-Apr-24 06:59S 22°53' W 043°12'0 0.0
2019-Apr-24 06:29S 22°53' W 043°12'0 0.0
2019-Apr-24 05:59S 22°53' W 043°12'0 0.0
2019-Apr-24 05:29S 22°53' W 043°12'0 0.0
2019-Apr-24 04:59S 22°53' W 043°12'0 0.0
2019-Apr-24 04:29S 22°53' W 043°12'0 0.0
2019-Apr-24 03:59S 22°53' W 043°12'0 0.0
2019-Apr-24 03:29S 22°53' W 043°12'0 0.0
2019-Apr-24 02:59S 22°53' W 043°12'0 0.0
2019-Apr-24 02:29S 22°53' W 043°12'0 0.0
2019-Apr-24 02:00S 22°53' W 043°12'1 1.9
2019-Apr-24 01:30S 22°53' W 043°11'3 6.5
2019-Apr-24 01:00S 22°55' W 043°09'4 8.0
2019-Apr-24 00:30S 22°59' W 043°08'815.7
2019-Apr-24 00:00S 23°06' W 043°05'1 1.6
2019-Apr-23 23:30S 23°07' W 043°05'0 0.6
2019-Apr-23 23:00S 23°07' W 043°05'0 0.8
2019-Apr-23 22:26S 23°08' W 043°05'1 1.6
2019-Apr-23 22:00S 23°08' W 043°06'712.4
2019-Apr-23 21:29S 23°10' W 043°13'715.0
2019-Apr-23 21:00S 23°13' W 043°20'714.8
2019-Apr-23 20:30S 23°15' W 043°27'1114.3
2019-Apr-23 19:44S 23°20' W 043°39'14115.7
2019-Apr-23 10:44S 24°13' W 046°01'417.2
2019-Apr-23 10:30S 24°12' W 046°06'816.5
2019-Apr-23 10:00S 24°10' W 046°14'815.8
2019-Apr-23 09:30S 24°07' W 046°23'712.9
2019-Apr-23 09:00S 24°00' W 046°20'3 6.2
2019-Apr-23 08:28S 23°58' W 046°17'1 1.2
2019-Apr-23 07:54S 23°58' W 046°18'0 0.0
2019-Apr-23 07:30S 23°58' W 046°18'0 0.0
2019-Apr-23 06:57S 23°58' W 046°18'0 0.0
2019-Apr-23 06:27S 23°58' W 046°18'0 0.0
2019-Apr-23 05:27S 23°58' W 046°18'0 0.0
2019-Apr-23 04:30S 23°58' W 046°18'0 0.0
2019-Apr-23 04:00S 23°58' W 046°18'0 0.0
2019-Apr-23 03:30S 23°58' W 046°18'0 0.0
2019-Apr-23 03:00S 23°58' W 046°18'0 0.0
2019-Apr-23 02:27S 23°58' W 046°18'0 0.0
2019-Apr-23 01:48S 23°58' W 046°18'0 0.0
2019-Apr-23 01:30S 23°58' W 046°18'0 0.0
2019-Apr-23 00:57S 23°58' W 046°18'0 0.0
2019-Apr-23 00:27S 23°58' W 046°18'0 0.0
2019-Apr-23 00:00S 23°58' W 046°18'0 0.0
2019-Apr-22 23:27S 23°58' W 046°18'0 0.0
2019-Apr-22 23:00S 23°58' W 046°18'0 0.0
2019-Apr-22 22:27S 23°58' W 046°18'0 0.0
2019-Apr-22 21:57S 23°58' W 046°18'0 0.0
2019-Apr-22 21:09S 23°58' W 046°18'0 0.0
2019-Apr-22 20:57S 23°58' W 046°18'0 0.0
2019-Apr-22 20:18S 23°58' W 046°18'0 0.0
2019-Apr-22 19:54S 23°58' W 046°18'0 0.0
2019-Apr-22 19:18S 23°58' W 046°18'0 0.0
2019-Apr-22 19:00S 23°58' W 046°18'0 0.0
2019-Apr-22 18:24S 23°58' W 046°18'0 0.0
2019-Apr-22 17:51S 23°58' W 046°18'0 0.0
2019-Apr-22 17:27S 23°58' W 046°18'0 0.0
2019-Apr-22 16:33S 23°58' W 046°18'0 0.0
2019-Apr-22 16:21S 23°58' W 046°18'0 0.0
2019-Apr-22 15:45S 23°58' W 046°18'0 0.0
2019-Apr-22 15:15S 23°58' W 046°18'0 0.0
2019-Apr-22 14:51S 23°58' W 046°18'0 0.0
2019-Apr-22 14:15S 23°58' W 046°18'0 0.0
2019-Apr-22 13:48S 23°58' W 046°18'0 0.0
2019-Apr-22 13:21S 23°58' W 046°18'0 0.0
2019-Apr-22 12:51S 23°58' W 046°18'0 0.0
2019-Apr-22 12:21S 23°58' W 046°18'2 3.0
2019-Apr-22 11:49S 23°59' W 046°17'3 8.4
2019-Apr-22 11:30S 24°00' W 046°20'4 7.1
2019-Apr-22 11:00S 24°04' W 046°22'4 7.9
2019-Apr-22 10:30S 24°08' W 046°21'2 3.1
2019-Apr-22 09:58S 24°09' W 046°20'0 0.0
2019-Apr-22 09:28S 24°09' W 046°20'0 0.1
2019-Apr-22 08:58S 24°09' W 046°20'0 0.0
2019-Apr-22 08:28S 24°09' W 046°20'0 0.0
2019-Apr-22 07:55S 24°09' W 046°20'0 0.0
2019-Apr-22 07:25S 24°09' W 046°20'0 0.0
2019-Apr-22 06:58S 24°09' W 046°20'0 0.0
2019-Apr-22 06:28S 24°09' W 046°20'0 0.0
2019-Apr-22 05:58S 24°09' W 046°20'0 0.0
2019-Apr-22 05:28S 24°09' W 046°20'0 0.0
2019-Apr-22 04:58S 24°09' W 046°20'0 0.0
2019-Apr-22 04:28S 24°09' W 046°20'0 0.0
2019-Apr-22 03:58S 24°09' W 046°20'0 0.0
2019-Apr-22 03:28S 24°09' W 046°20'0 0.0
2019-Apr-22 02:58S 24°09' W 046°20'0 0.0
2019-Apr-22 02:28S 24°09' W 046°20'0 0.0
2019-Apr-22 01:58S 24°09' W 046°20'0 0.0
2019-Apr-22 01:22S 24°09' W 046°20'0 0.0
2019-Apr-22 00:58S 24°09' W 046°20'0 0.0
2019-Apr-22 00:25S 24°09' W 046°20'0 0.0
2019-Apr-21 23:52S 24°09' W 046°20'0 0.0
2019-Apr-21 23:28S 24°09' W 046°20'0 0.0
2019-Apr-21 22:58S 24°09' W 046°20'0 0.0
2019-Apr-21 22:16S 24°09' W 046°20'0 0.0
2019-Apr-21 21:58S 24°09' W 046°20'0 0.0
2019-Apr-21 21:28S 24°09' W 046°20'0 0.0
2019-Apr-21 20:58S 24°09' W 046°20'0 0.0
2019-Apr-21 20:28S 24°09' W 046°20'0 0.0
2019-Apr-21 19:52S 24°09' W 046°20'0 0.0
2019-Apr-21 19:28S 24°09' W 046°20'0 0.0
2019-Apr-21 18:52S 24°09' W 046°20'0 0.0
2019-Apr-21 18:28S 24°09' W 046°20'0 0.0
2019-Apr-21 17:55S 24°09' W 046°20'0 0.0
2019-Apr-21 17:28S 24°09' W 046°20'0 0.0
2019-Apr-21 16:55S 24°09' W 046°20'0 0.0
2019-Apr-21 16:25S 24°09' W 046°20'0 0.0
2019-Apr-21 15:58S 24°09' W 046°20'0 0.0
2019-Apr-21 15:28S 24°09' W 046°20'0 0.0
2019-Apr-21 14:58S 24°09' W 046°20'0 0.0
2019-Apr-21 14:25S 24°09' W 046°20'0 0.0
2019-Apr-21 13:58S 24°09' W 046°20'0 0.0
2019-Apr-21 13:28S 24°09' W 046°20'0 0.0
2019-Apr-21 12:55S 24°09' W 046°20'0 0.0
2019-Apr-21 12:28S 24°09' W 046°20'0 0.0
2019-Apr-21 11:58S 24°09' W 046°20'0 0.0
2019-Apr-21 11:28S 24°09' W 046°20'0 0.0
2019-Apr-21 10:58S 24°09' W 046°20'0 0.0
2019-Apr-21 10:25S 24°09' W 046°20'0 0.0
2019-Apr-21 09:58S 24°09' W 046°20'0 0.0
2019-Apr-21 09:28S 24°09' W 046°20'0 0.1
2019-Apr-21 08:58S 24°09' W 046°20'0 0.0
2019-Apr-21 08:28S 24°09' W 046°20'0 0.0
2019-Apr-21 07:52S 24°09' W 046°20'0 0.1
2019-Apr-21 07:16S 24°09' W 046°20'0 0.2
2019-Apr-21 06:49S 24°09' W 046°20'0 0.2
2019-Apr-21 06:25S 24°09' W 046°20'0 0.0
2019-Apr-21 05:58S 24°09' W 046°20'0 0.1
2019-Apr-21 05:28S 24°09' W 046°20'0 0.3
2019-Apr-21 04:58S 24°09' W 046°20'0 0.2
2019-Apr-21 04:25S 24°09' W 046°20'0 0.0
2019-Apr-21 03:58S 24°09' W 046°20'0 0.0
2019-Apr-21 03:19S 24°09' W 046°20'0 0.0
2019-Apr-21 02:58S 24°09' W 046°20'0 0.0
2019-Apr-21 02:28S 24°09' W 046°20'0 0.0
2019-Apr-21 01:52S 24°09' W 046°20'0 0.1
2019-Apr-21 01:25S 24°09' W 046°20'0 0.1
2019-Apr-21 00:58S 24°09' W 046°20'0 0.0
2019-Apr-21 00:28S 24°09' W 046°20'0 0.0
2019-Apr-20 23:58S 24°09' W 046°20'0 0.0
2019-Apr-20 23:28S 24°09' W 046°20'0 0.0
2019-Apr-20 22:58S 24°09' W 046°20'0 0.0
2019-Apr-20 22:28S 24°09' W 046°20'0 0.1
2019-Apr-20 21:58S 24°09' W 046°20'0 0.1
2019-Apr-20 21:28S 24°09' W 046°20'0 0.1
2019-Apr-20 20:55S 24°09' W 046°20'0 0.0
2019-Apr-20 20:16S 24°09' W 046°20'0 0.0
2019-Apr-20 19:58S 24°09' W 046°20'0 0.1
2019-Apr-20 19:16S 24°09' W 046°20'0 0.1
2019-Apr-20 18:58S 24°09' W 046°20'0 0.0
2019-Apr-20 18:28S 24°09' W 046°20'0 0.0
2019-Apr-20 17:58S 24°09' W 046°20'0 0.0
2019-Apr-20 17:28S 24°09' W 046°20'0 0.0
2019-Apr-20 16:58S 24°09' W 046°20'0 0.1
2019-Apr-20 16:28S 24°09' W 046°20'0 0.1
2019-Apr-20 15:58S 24°09' W 046°20'0 0.1
2019-Apr-20 15:28S 24°09' W 046°20'0 0.1
2019-Apr-20 14:49S 24°09' W 046°20'0 0.0
2019-Apr-20 14:28S 24°09' W 046°20'0 0.1
2019-Apr-20 13:55S 24°09' W 046°20'0 0.1
2019-Apr-20 13:28S 24°09' W 046°20'0 0.0
2019-Apr-20 12:58S 24°09' W 046°20'0 0.1
2019-Apr-20 12:28S 24°09' W 046°20'0 0.0
2019-Apr-20 11:58S 24°09' W 046°20'0 0.1
2019-Apr-20 11:28S 24°09' W 046°20'0 0.1
2019-Apr-20 10:58S 24°09' W 046°20'0 0.0
2019-Apr-20 10:13S 24°09' W 046°20'0 0.0
2019-Apr-20 09:58S 24°09' W 046°20'0 0.0
2019-Apr-20 09:28S 24°09' W 046°20'0 0.0
2019-Apr-20 08:58S 24°09' W 046°20'0 0.0
2019-Apr-20 08:19S 24°09' W 046°20'0 0.1
2019-Apr-20 07:55S 24°09' W 046°20'0 0.0
2019-Apr-20 07:25S 24°09' W 046°20'0 0.2
2019-Apr-20 06:55S 24°09' W 046°20'0 0.2
2019-Apr-20 06:28S 24°09' W 046°20'0 0.0
2019-Apr-20 05:52S 24°09' W 046°20'0 0.0
2019-Apr-20 05:28S 24°09' W 046°20'0 0.0
2019-Apr-20 04:58S 24°09' W 046°20'0 0.1
2019-Apr-20 04:25S 24°09' W 046°20'0 0.0
2019-Apr-20 03:55S 24°09' W 046°20'0 0.0
2019-Apr-20 03:25S 24°09' W 046°20'0 0.0
2019-Apr-20 02:58S 24°09' W 046°20'0 0.1
2019-Apr-20 02:28S 24°09' W 046°20'0 0.0
2019-Apr-20 01:58S 24°09' W 046°20'0 0.0
2019-Apr-20 01:28S 24°09' W 046°20'0 0.0
2019-Apr-20 00:58S 24°09' W 046°20'0 0.0
2019-Apr-20 00:28S 24°09' W 046°20'0 0.0
2019-Apr-19 23:58S 24°09' W 046°20'0 0.0
2019-Apr-19 23:25S 24°09' W 046°20'0 0.0
2019-Apr-19 22:58S 24°09' W 046°20'0 0.0
2019-Apr-19 22:28S 24°09' W 046°20'0 0.1
2019-Apr-19 21:55S 24°09' W 046°20'0 0.0
2019-Apr-19 21:25S 24°09' W 046°20'0 0.1
2019-Apr-19 20:55S 24°09' W 046°20'0 0.1
2019-Apr-19 20:25S 24°09' W 046°20'0 0.1
2019-Apr-19 19:55S 24°09' W 046°20'0 0.0
2019-Apr-19 19:16S 24°09' W 046°20'0 0.0
2019-Apr-19 18:46S 24°09' W 046°20'0 0.0
2019-Apr-19 18:25S 24°09' W 046°20'0 0.0
2019-Apr-19 17:52S 24°09' W 046°20'0 0.0
2019-Apr-19 17:16S 24°09' W 046°20'0 0.0
2019-Apr-19 16:52S 24°09' W 046°20'0 0.0
2019-Apr-19 16:01S 24°09' W 046°20'0 0.1
2019-Apr-19 15:55S 24°09' W 046°20'0 0.0
2019-Apr-19 15:04S 24°09' W 046°20'0 0.0
2019-Apr-19 14:52S 24°09' W 046°20'0 0.0
2019-Apr-19 14:28S 24°09' W 046°20'0 0.0
2019-Apr-19 13:58S 24°09' W 046°20'0 0.0
2019-Apr-19 13:25S 24°09' W 046°20'0 0.0
2019-Apr-19 12:52S 24°09' W 046°20'0 0.0
2019-Apr-19 12:25S 24°09' W 046°20'0 0.1
2019-Apr-19 11:55S 24°09' W 046°20'0 0.0
2019-Apr-19 11:25S 24°09' W 046°20'0 0.0
2019-Apr-19 10:55S 24°09' W 046°20'0 0.1
2019-Apr-19 10:28S 24°09' W 046°20'0 0.0
2019-Apr-19 09:55S 24°09' W 046°20'0 0.1
2019-Apr-19 09:28S 24°09' W 046°20'0 0.0
2019-Apr-19 08:58S 24°09' W 046°20'0 0.0
2019-Apr-19 08:28S 24°09' W 046°20'0 0.0
2019-Apr-19 07:55S 24°09' W 046°20'0 0.2
2019-Apr-19 07:28S 24°09' W 046°20'0 0.0
2019-Apr-19 06:58S 24°09' W 046°20'0 0.1
2019-Apr-19 06:28S 24°09' W 046°20'0 0.0
2019-Apr-19 05:58S 24°09' W 046°20'0 0.1
2019-Apr-19 05:25S 24°09' W 046°20'0 0.0
2019-Apr-19 04:52S 24°09' W 046°20'0 0.1
2019-Apr-19 04:28S 24°09' W 046°20'0 0.0
2019-Apr-19 03:55S 24°09' W 046°20'0 0.0
2019-Apr-19 03:22S 24°09' W 046°20'0 0.0
2019-Apr-19 02:43S 24°09' W 046°20'0 0.0
2019-Apr-19 02:07S 24°09' W 046°20'0 0.1
2019-Apr-19 01:49S 24°09' W 046°20'0 0.5
2019-Apr-19 01:28S 24°09' W 046°20'1 2.2
2019-Apr-19 01:00S 24°10' W 046°20'611.9
2019-Apr-19 00:30S 24°15' W 046°23'815.8
2019-Apr-19 00:00S 24°22' W 046°28'815.8
2019-Apr-18 23:30S 24°29' W 046°31'815.5
2019-Apr-18 23:00S 24°35' W 046°37'2615.7
2019-Apr-18 21:21S 24°55' W 046°56'  

Dump ship's entire track history